Terminal Aerodrome Forecast
Issued by NWS Chicago, IL

Home | Current Version | Previous Version | Graphics & Text | Print | Product List | Glossary On
Versions: 1 2 3 4 5 6 7 8 9 10 11 12 13 14 15 16 17 18 19 20 21 22 23
682
FTUS43 KLOT 172325
TAFRFD
TAF
KRFD 172325Z 1800/1824 33008KT P6SM BKN250
     FM180600 02004KT P6SM FEW150 SCT250
     FM181400 07006KT P6SM SCT120 BKN250
     FM182000 15007KT P6SM SCT050 BKN120 OVC250=

USA.gov is the U.S. government's official web portal to all federal, state and local government web resources and services.